Time;durP1;ratioP1;P1;durP2;ratioP2;P2;SDS_P1;SDS_P2;PMS_P1;PMS_P2;Temp;Humidity;BMP_temperature;BMP_pressure;BME280_temperature;BME280_humidity;BME280_pressure;Samples;Min_cycle;Max_cycle;Signal;HPM_P1;HPM_P2
2023/01/30 00:01:37;;;;;;;5.80;2.72;;;;;;;-0.65;85.61;94913.44;5110572;28;20214;-77
2023/01/30 00:04:05;;;;;;;4.85;2.55;;;;;;;-0.70;86.26;94907.28;5111039;28;20193;-75
2023/01/30 00:06:32;;;;;;;3.35;1.50;;;;;;;-0.72;86.11;94900.34;5111002;28;20230;-75
2023/01/30 00:08:58;;;;;;;6.70;3.05;;;;;;;-0.82;87.15;94894.91;5110479;28;20744;-75
2023/01/30 00:11:27;;;;;;;5.05;3.20;;;;;;;-0.82;87.26;94900.22;5110759;28;20206;-75
2023/01/30 00:13:54;;;;;;;5.22;3.20;;;;;;;-0.82;87.52;94902.88;5110491;28;20232;-76
2023/01/30 00:16:27;;;;;;;8.88;4.47;;;;;;;-0.89;87.22;94889.00;5110887;28;20247;-76
2023/01/30 00:18:54;;;;;;;18.50;9.25;;;;;;;-0.84;87.35;94890.91;5110627;28;20539;-75
2023/01/30 00:21:22;;;;;;;17.15;7.95;;;;;;;-0.95;87.75;94895.28;5110356;28;20664;-78
2023/01/30 00:23:48;;;;;;;4.60;2.55;;;;;;;-0.91;87.73;94885.78;5110792;28;20263;-77
2023/01/30 00:26:15;;;;;;;3.05;2.45;;;;;;;-0.89;87.72;94894.31;5110877;28;20278;-77
2023/01/30 00:28:42;;;;;;;7.47;3.53;;;;;;;-0.91;88.09;94895.59;5110896;28;20254;-77
2023/01/30 00:31:09;;;;;;;10.15;3.80;;;;;;;-0.91;88.26;94896.41;5102672;28;20210;-78
2023/01/30 00:33:38;;;;;;;9.27;3.70;;;;;;;-0.93;87.98;94892.38;5104950;28;20604;-76
2023/01/30 00:36:05;;;;;;;7.78;3.78;;;;;;;-0.97;88.39;94892.09;5110268;28;20255;-76
2023/01/30 00:38:34;;;;;;;6.22;3.40;;;;;;;-0.97;88.79;94886.78;5110298;28;20211;-76
2023/01/30 00:41:02;;;;;;;4.28;2.53;;;;;;;-0.98;88.99;94887.84;5110384;28;20197;-74
2023/01/30 00:49:11;;;;;;;23.83;10.75;;;;;;;-1.08;90.11;94869.09;5098884;28;20230;-76
2023/01/30 00:51:38;;;;;;;7.75;4.40;;;;;;;-1.16;90.03;94874.88;5110034;28;20672;-76
2023/01/30 00:54:06;;;;;;;13.88;6.05;;;;;;;-1.18;90.28;94871.66;5109555;28;20206;-75
2023/01/30 00:56:33;;;;;;;6.57;3.55;;;;;;;-1.22;90.39;94875.84;5107710;28;20246;-77
2023/01/30 00:59:00;;;;;;;11.95;3.63;;;;;;;-1.26;90.39;94861.47;5098676;28;20205;-77
2023/01/30 01:01:26;;;;;;;5.43;2.78;;;;;;;-1.21;90.34;94866.81;5109240;28;20202;-75
2023/01/30 01:03:53;;;;;;;10.07;3.42;;;;;;;-1.28;90.35;94871.53;5109210;28;20250;-75
2023/01/30 01:06:20;;;;;;;19.85;8.48;;;;;;;-1.29;90.59;94872.59;5109298;28;20232;-77
2023/01/30 01:08:47;;;;;;;23.27;9.10;;;;;;;-1.34;90.54;94870.66;5109197;28;20197;-74
2023/01/30 01:11:23;;;;;;;12.68;6.95;;;;;;;-1.34;90.71;94875.16;5109452;28;20255;-76
2023/01/30 01:13:51;;;;;;;13.45;5.40;;;;;;;-1.42;91.05;94868.44;5109288;28;20232;-75
2023/01/30 01:16:17;;;;;;;20.80;6.85;;;;;;;-1.49;90.92;94858.00;5109282;28;20198;-75
2023/01/30 01:18:44;;;;;;;13.95;7.47;;;;;;;-1.44;91.22;94866.03;5109161;28;20198;-76
2023/01/30 01:21:12;;;;;;;22.80;10.40;;;;;;;-1.37;90.82;94867.72;5109238;28;20197;-76
2023/01/30 01:23:39;;;;;;;13.02;6.13;;;;;;;-1.41;89.75;94859.44;5109466;28;20658;-75
2023/01/30 01:26:06;;;;;;;7.43;3.28;;;;;;;-1.34;89.98;94848.59;5108771;28;20212;-76
2023/01/30 01:28:34;;;;;;;17.88;4.20;;;;;;;-1.22;90.22;94851.94;5109242;28;20225;-77
2023/01/30 01:31:00;;;;;;;10.10;4.85;;;;;;;-1.33;89.73;94844.91;5108676;28;20262;-76
2023/01/30 01:33:27;;;;;;;10.05;4.85;;;;;;;-1.26;89.48;94858.81;5108924;28;20247;-77
2023/01/30 01:35:56;;;;;;;12.48;4.72;;;;;;;-1.30;89.44;94855.03;5108535;28;20244;-76
2023/01/30 01:38:23;;;;;;;13.38;6.22;;;;;;;-1.30;89.60;94853.19;5109097;28;20201;-76
2023/01/30 01:41:00;;;;;;;9.38;4.28;;;;;;;-1.23;89.89;94850.34;5094708;28;20193;-77
2023/01/30 01:43:30;;;;;;;7.72;4.15;;;;;;;-1.18;89.45;94853.03;5108635;28;20238;-77
2023/01/30 01:46:01;;;;;;;2.17;1.40;;;;;;;-1.23;89.62;94856.44;5108626;28;20594;-78
2023/01/30 01:48:30;;;;;;;6.72;3.40;;;;;;;-1.33;89.75;94850.22;5108877;28;20229;-74
2023/01/30 01:50:59;;;;;;;3.58;2.55;;;;;;;-1.31;89.66;94864.84;5108367;28;20595;-75
2023/01/30 01:53:30;;;;;;;8.27;4.82;;;;;;;-1.30;89.64;94849.72;5108434;28;20210;-75
2023/01/30 01:55:59;;;;;;;7.78;4.65;;;;;;;-1.33;89.47;94855.53;5108338;28;20193;-76
2023/01/30 01:58:32;;;;;;;2.63;2.38;;;;;;;-1.31;89.41;94853.44;5103070;28;20210;-77
2023/01/30 02:01:01;;;;;;;10.43;4.28;;;;;;;-1.42;89.48;94839.22;5088228;28;20267;-77
2023/01/30 02:03:32;;;;;;;12.30;4.88;;;;;;;-1.43;88.99;94853.56;5108129;28;20694;-76
2023/01/30 02:06:02;;;;;;;11.65;4.13;;;;;;;-1.42;88.89;94846.38;5108552;28;20664;-77
2023/01/30 02:08:32;;;;;;;7.90;5.38;;;;;;;-1.44;89.69;94860.72;5108612;28;20217;-77
2023/01/30 02:11:06;;;;;;;10.00;3.13;;;;;;;-1.39;89.33;94865.31;5108284;28;20201;-77
2023/01/30 02:13:32;;;;;;;7.32;3.25;;;;;;;-1.36;88.60;94861.31;5112796;28;20221;-77
2023/01/30 02:16:03;;;;;;;4.93;2.70;;;;;;;-1.32;87.06;94867.75;5112638;28;20216;-76
2023/01/30 02:18:32;;;;;;;2.78;1.77;;;;;;;-1.22;87.37;94862.56;5112820;28;20610;-76
2023/01/30 02:21:30;;;;;;;8.18;2.92;;;;;;;-1.22;86.02;94862.56;5112627;28;20197;-75
2023/01/30 02:24:27;;;;;;;3.08;2.45;;;;;;;-1.17;86.10;94855.47;5112576;28;20194;-77
2023/01/30 02:27:22;;;;;;;3.42;1.55;;;;;;;-1.11;85.87;94865.09;5112594;28;20209;-78
2023/01/30 02:30:19;;;;;;;4.43;2.33;;;;;;;-1.13;86.05;94850.44;5102367;28;20254;-77
2023/01/30 02:32:55;;;;;;;6.00;3.47;;;;;;;-1.13;85.83;94855.78;5097732;28;20210;-76
2023/01/30 02:35:29;;;;;;;2.90;2.28;;;;;;;-1.02;86.17;94857.47;5112430;28;20842;-77
2023/01/30 02:38:06;;;;;;;4.65;1.35;;;;;;;-0.98;85.50;94858.59;5112467;28;20243;-77
2023/01/30 02:40:45;;;;;;;4.95;1.20;;;;;;;-0.91;85.20;94853.88;5112433;28;20189;-77
2023/01/30 02:43:21;;;;;;;3.35;2.40;;;;;;;-0.89;85.64;94849.09;5112155;28;20197;-76
2023/01/30 02:45:54;;;;;;;6.00;2.28;;;;;;;-0.90;85.09;94847.50;5099445;28;20208;-76
2023/01/30 02:48:25;;;;;;;2.08;1.40;;;;;;;-0.91;85.39;94842.44;5112413;28;20214;-76
2023/01/30 02:50:59;;;;;;;7.60;3.38;;;;;;;-1.08;86.34;94847.84;5112105;28;20246;-76
2023/01/30 02:53:26;;;;;;;3.78;2.10;;;;;;;-1.08;86.88;94842.53;5111870;28;20198;-76
2023/01/30 02:55:53;;;;;;;5.28;2.72;;;;;;;-1.14;86.61;94838.22;5112100;28;20206;-76
2023/01/30 02:58:23;;;;;;;5.28;1.58;;;;;;;-1.10;86.45;94840.13;5111856;28;20270;-77
2023/01/30 03:01:31;;;;;;;5.47;3.05;;;;;;;-0.97;86.44;94849.56;5111413;28;20198;-78
2023/01/30 03:04:17;;;;;;;5.78;2.35;;;;;;;-1.05;85.96;94850.00;5096727;28;20742;-76
2023/01/30 03:07:11;;;;;;;4.82;2.50;;;;;;;-0.99;85.75;94846.34;5112048;28;20197;-77
2023/01/30 03:09:44;;;;;;;3.83;2.63;;;;;;;-1.03;85.63;94849.75;5112102;28;20193;-77
2023/01/30 03:12:17;;;;;;;4.88;2.08;;;;;;;-1.07;85.58;94852.09;5111808;28;20198;-76
2023/01/30 03:14:49;;;;;;;4.20;2.22;;;;;;;-1.07;86.47;94836.16;5111379;28;20652;-76
2023/01/30 03:17:18;;;;;;;3.33;2.20;;;;;;;-1.08;86.23;94826.56;5111940;28;20197;-77
2023/01/30 03:19:47;;;;;;;5.38;3.35;;;;;;;-1.10;85.55;94826.84;5111601;28;20259;-75
2023/01/30 03:22:13;;;;;;;4.82;2.72;;;;;;;-1.11;85.50;94821.78;5112104;28;20197;-77
2023/01/30 03:24:41;;;;;;;3.70;2.67;;;;;;;-1.13;85.57;94818.56;5110051;28;20239;-77
2023/01/30 03:27:11;;;;;;;2.72;1.70;;;;;;;-0.94;85.33;94822.47;5111517;28;20260;-79
2023/01/30 03:29:39;;;;;;;7.03;3.08;;;;;;;-0.98;85.40;94817.91;5111615;28;20208;-75
2023/01/30 03:32:06;;;;;;;6.20;2.03;;;;;;;-1.10;85.52;94812.75;5111265;28;20202;-76
2023/01/30 03:34:33;;;;;;;5.68;2.97;;;;;;;-1.19;86.04;94807.06;5111314;28;20641;-77
2023/01/30 03:37:01;;;;;;;5.25;3.05;;;;;;;-1.12;85.29;94804.22;5111908;28;20190;-77
2023/01/30 03:39:28;;;;;;;5.18;2.42;;;;;;;-1.09;85.81;94804.50;5111515;28;20197;-78
2023/01/30 03:41:55;;;;;;;7.55;2.97;;;;;;;-1.26;85.73;94798.50;5110821;28;20201;-77
2023/01/30 03:44:22;;;;;;;7.45;3.72;;;;;;;-1.21;86.30;94803.03;5111130;28;20690;-76
2023/01/30 03:46:49;;;;;;;7.68;2.42;;;;;;;-1.25;86.44;94802.75;5110831;28;20193;-77
2023/01/30 03:49:15;;;;;;;6.47;1.85;;;;;;;-1.22;86.14;94798.78;5111311;28;20314;-76
2023/01/30 03:51:42;;;;;;;3.95;2.50;;;;;;;-1.27;86.55;94796.09;5110779;28;20209;-77
2023/01/30 03:54:10;;;;;;;8.77;2.95;;;;;;;-1.27;86.91;94796.09;5110568;28;20296;-77
2023/01/30 03:56:37;;;;;;;4.75;2.97;;;;;;;-1.37;86.58;94791.47;5110673;28;20597;-77
2023/01/30 03:59:04;;;;;;;11.52;4.45;;;;;;;-1.47;86.07;94802.78;5110596;28;20251;-76
2023/01/30 04:01:31;;;;;;;6.28;2.78;;;;;;;-1.39;86.38;94792.78;5110285;28;20202;-79
2023/01/30 04:03:58;;;;;;;6.28;3.08;;;;;;;-1.39;86.10;94798.88;5110543;28;20201;-76
2023/01/30 04:06:24;;;;;;;16.42;7.95;;;;;;;-1.33;85.57;94791.75;5110920;28;20202;-76
2023/01/30 04:08:52;;;;;;;38.33;16.15;;;;;;;-1.35;87.03;94783.22;5110848;28;20233;-77
2023/01/30 04:11:21;;;;;;;10.98;5.80;;;;;;;-1.52;87.80;94786.78;5110489;28;20202;-76
2023/01/30 04:13:47;;;;;;;17.33;7.90;;;;;;;-1.52;88.43;94794.75;5110338;28;20226;-78
2023/01/30 04:16:17;;;;;;;12.70;6.28;;;;;;;-1.52;88.68;94789.44;5110120;28;20197;-76
2023/01/30 04:18:44;;;;;;;16.13;7.43;;;;;;;-1.47;89.19;94789.50;5110500;28;20296;-78
2023/01/30 04:21:10;;;;;;;11.90;4.93;;;;;;;-1.44;88.60;94802.28;5110270;28;20201;-75
2023/01/30 04:23:37;;;;;;;16.70;5.88;;;;;;;-1.42;88.64;94793.25;5110455;28;20236;-77
2023/01/30 04:26:04;;;;;;;15.35;7.00;;;;;;;-1.54;88.75;94796.06;5110558;28;20194;-76
2023/01/30 04:28:33;;;;;;;2.28;1.77;;;;;;;-1.56;89.02;94792.84;5110991;28;20229;-76
2023/01/30 04:30:59;;;;;;;7.20;3.53;;;;;;;-1.44;89.44;94802.28;5110745;28;20640;-77
2023/01/30 04:33:26;;;;;;;6.70;4.18;;;;;;;-1.40;88.75;94797.28;5110556;28;20206;-77
2023/01/30 04:35:53;;;;;;;6.60;3.53;;;;;;;-1.41;89.15;94800.19;5109710;28;20245;-77
2023/01/30 04:38:20;;;;;;;12.57;4.43;;;;;;;-1.40;88.93;94801.78;5110246;28;20198;-77
2023/01/30 04:40:51;;;;;;;4.80;2.65;;;;;;;-1.30;89.12;94793.94;5110486;28;20251;-78
2023/01/30 04:43:18;;;;;;;4.00;2.60;;;;;;;-1.34;89.09;94785.63;5110243;28;20723;-76
2023/01/30 04:45:46;;;;;;;5.85;3.95;;;;;;;-1.35;88.96;94788.53;5110127;28;20205;-75
2023/01/30 04:48:14;;;;;;;8.65;4.05;;;;;;;-1.20;88.92;94788.72;5109876;28;20225;-77
2023/01/30 04:50:42;;;;;;;6.18;2.88;;;;;;;-1.29;88.85;94784.91;5109759;28;20201;-76
2023/01/30 04:53:10;;;;;;;3.70;2.35;;;;;;;-1.41;89.41;94778.94;5110375;28;20198;-75
2023/01/30 04:55:37;;;;;;;8.43;3.35;;;;;;;-1.54;89.59;94780.91;5110290;28;20206;-76
2023/01/30 04:58:04;;;;;;;9.65;3.20;;;;;;;-1.48;90.04;94769.28;5110329;28;20330;-78
2023/01/30 05:00:33;;;;;;;7.82;4.53;;;;;;;-1.43;90.31;94779.19;5109659;28;20258;-77
2023/01/30 05:03:01;;;;;;;6.30;2.90;;;;;;;-1.50;89.87;94770.59;5109804;28;20272;-76
2023/01/30 05:05:28;;;;;;;9.65;3.15;;;;;;;-1.46;90.41;94772.50;5109154;28;20433;-75
2023/01/30 05:07:54;;;;;;;6.75;3.20;;;;;;;-1.45;90.52;94768.78;5109551;28;20591;-77
2023/01/30 05:10:22;;;;;;;6.95;3.75;;;;;;;-1.47;90.58;94780.72;5109826;28;20198;-74
2023/01/30 05:12:48;;;;;;;6.03;2.97;;;;;;;-1.41;90.43;94770.97;5109322;28;20225;-75
2023/01/30 05:15:15;;;;;;;6.45;3.15;;;;;;;-1.41;90.83;94765.66;5109185;28;20201;-77
2023/01/30 05:17:42;;;;;;;8.25;4.05;;;;;;;-1.41;90.95;94777.06;5109032;28;20669;-78
2023/01/30 05:20:13;;;;;;;5.35;3.17;;;;;;;-1.55;91.18;94774.00;5109239;28;20205;-77
2023/01/30 05:22:40;;;;;;;9.20;4.55;;;;;;;-1.64;91.85;94780.78;5109369;28;20262;-78
2023/01/30 05:25:07;;;;;;;4.97;3.63;;;;;;;-1.68;92.28;94785.00;5109128;28;20205;-79
2023/01/30 05:27:34;;;;;;;4.40;2.97;;;;;;;-1.71;92.22;94777.53;5109677;28;20206;-79
2023/01/30 05:30:01;;;;;;;9.75;3.05;;;;;;;-1.66;92.46;94788.22;5109398;28;20721;-77
2023/01/30 05:32:29;;;;;;;14.48;4.45;;;;;;;-1.67;92.48;94797.22;5109480;28;20197;-77
2023/01/30 05:34:56;;;;;;;8.55;2.42;;;;;;;-1.53;92.56;94793.16;5108980;28;20260;-79
2023/01/30 05:37:24;;;;;;;9.57;4.80;;;;;;;-1.51;92.56;94782.28;5109377;28;20194;-78
2023/01/30 05:39:51;;;;;;;4.95;2.63;;;;;;;-1.53;92.33;94777.22;5108772;28;20263;-79
2023/01/30 05:42:18;;;;;;;12.35;4.35;;;;;;;-1.56;92.00;94783.03;5109720;28;20206;-76
2023/01/30 05:44:45;;;;;;;12.02;4.28;;;;;;;-1.64;92.48;94785.31;5110279;28;20217;-81
2023/01/30 05:47:11;;;;;;;6.32;3.00;;;;;;;-1.65;93.15;94784.50;5109617;28;20288;-78
2023/01/30 05:49:38;;;;;;;10.10;4.50;;;;;;;-1.66;93.25;94782.91;5108715;28;20278;-77
2023/01/30 05:52:05;;;;;;;7.85;3.85;;;;;;;-1.69;93.22;94778.09;5102902;28;20198;-76
2023/01/30 05:54:34;;;;;;;7.70;3.67;;;;;;;-1.66;93.59;94788.22;5101659;28;20274;-78
2023/01/30 05:57:03;;;;;;;6.25;3.17;;;;;;;-1.58;93.37;94798.38;5109135;28;20189;-78
2023/01/30 05:59:30;;;;;;;6.18;2.90;;;;;;;-1.69;92.81;94786.06;5108672;28;20617;-76
2023/01/30 06:01:57;;;;;;;15.13;5.20;;;;;;;-1.62;93.41;94799.94;5109143;28;20217;-77
2023/01/30 06:04:24;;;;;;;10.63;4.30;;;;;;;-1.62;93.36;94799.94;5108954;28;20212;-77
2023/01/30 06:06:51;;;;;;;7.22;3.63;;;;;;;-1.53;93.84;94798.47;5108866;28;20193;-76
2023/01/30 06:09:17;;;;;;;7.68;4.90;;;;;;;-1.59;93.20;94794.13;5108491;28;20278;-78
2023/01/30 06:11:46;;;;;;;12.13;4.28;;;;;;;-1.61;93.13;94796.22;5108603;28;20717;-77
2023/01/30 06:14:12;;;;;;;14.35;6.55;;;;;;;-1.64;93.17;94791.41;5108827;28;20193;-77
2023/01/30 06:16:39;;;;;;;13.32;7.53;;;;;;;-1.55;92.99;94784.63;5108680;28;20800;-77
2023/01/30 06:19:06;;;;;;;11.60;5.15;;;;;;;-1.67;92.78;94793.78;5108524;28;20698;-77
2023/01/30 06:21:32;;;;;;;24.27;10.60;;;;;;;-1.63;93.07;94795.66;5108150;28;20259;-77
2023/01/30 06:23:59;;;;;;;24.27;10.00;;;;;;;-1.61;93.19;94785.59;5108820;28;20201;-77
2023/01/30 06:26:26;;;;;;;26.63;12.23;;;;;;;-1.47;95.04;94781.53;5108358;28;20623;-78
2023/01/30 06:28:54;;;;;;;9.68;4.30;;;;;;;-0.90;97.69;94770.41;5108328;28;20286;-72
2023/01/30 06:31:21;;;;;;;11.80;5.95;;;;;;;-0.81;94.96;94776.84;5108407;28;20254;-71
2023/01/30 06:33:48;;;;;;;8.82;4.35;;;;;;;-0.01;97.33;94767.88;5108016;28;20213;-72
2023/01/30 06:36:15;;;;;;;12.40;6.13;;;;;;;-0.65;93.22;94774.31;5107956;28;20244;-73
2023/01/30 06:38:42;;;;;;;17.50;6.15;;;;;;;-0.94;90.97;94787.09;5107184;28;20283;-76
2023/01/30 06:41:09;;;;;;;13.52;7.63;;;;;;;-1.30;90.96;94780.63;5102231;28;20213;-76
2023/01/30 06:43:36;;;;;;;25.83;5.75;;;;;;;-1.45;91.37;94790.03;5102790;28;20259;-76
2023/01/30 06:46:04;;;;;;;15.23;5.68;;;;;;;-1.52;91.82;94789.44;5108434;28;20247;-76
2023/01/30 06:48:30;;;;;;;10.20;4.10;;;;;;;-1.52;92.25;94789.44;5108391;28;20241;-76
2023/01/30 06:50:57;;;;;;;11.65;6.07;;;;;;;-1.53;92.49;94793.16;5108335;28;20711;-75
2023/01/30 06:53:29;;;;;;;14.68;5.78;;;;;;;-1.50;91.84;94797.94;5107659;28;20960;-76
2023/01/30 06:55:56;;;;;;;6.28;3.20;;;;;;;-1.49;91.71;94798.75;5107918;28;20251;-75
2023/01/30 06:58:22;;;;;;;20.85;6.55;;;;;;;-1.51;92.04;94796.38;5109082;28;20254;-75
2023/01/30 07:00:49;;;;;;;11.57;4.78;;;;;;;-1.63;92.15;94785.03;5111073;28;20206;-75
2023/01/30 07:03:18;;;;;;;6.50;2.88;;;;;;;-1.54;92.74;94801.38;5111395;28;20205;-77
2023/01/30 07:05:47;;;;;;;11.95;6.60;;;;;;;-1.56;92.28;94804.25;5111519;28;20206;-77
2023/01/30 07:08:16;;;;;;;12.60;6.13;;;;;;;-1.70;91.85;94797.72;5111543;28;20247;-76
2023/01/30 07:10:43;;;;;;;18.48;7.57;;;;;;;-1.50;92.18;94799.81;5111541;28;20209;-76
2023/01/30 07:13:10;;;;;;;5.22;3.47;;;;;;;-1.47;91.74;94801.97;5111482;28;20282;-77
2023/01/30 07:15:37;;;;;;;13.93;6.32;;;;;;;-1.56;91.58;94798.94;5111267;28;20197;-75
2023/01/30 07:18:04;;;;;;;20.13;8.23;;;;;;;-1.55;90.78;94808.53;5111499;28;20258;-74
2023/01/30 07:20:32;;;;;;;14.10;7.82;;;;;;;-1.63;91.67;94800.19;5111133;28;20201;-75
2023/01/30 07:22:59;;;;;;;7.80;4.65;;;;;;;-1.63;92.08;94802.81;5111239;28;20214;-75
2023/01/30 07:25:27;;;;;;;7.22;2.85;;;;;;;-1.56;92.42;94809.56;5110855;28;20262;-78
2023/01/30 07:27:55;;;;;;;13.50;7.40;;;;;;;-1.52;91.62;94810.69;5111094;28;20205;-75
2023/01/30 07:30:22;;;;;;;10.00;4.78;;;;;;;-1.51;91.88;94807.00;5111344;28;20579;-77
2023/01/30 07:32:53;;;;;;;17.13;6.55;;;;;;;-1.45;91.41;94815.81;5090682;28;20194;-74
2023/01/30 07:35:20;;;;;;;10.20;5.85;;;;;;;-1.38;91.44;94823.59;5104530;28;20945;-75
2023/01/30 07:37:49;;;;;;;12.80;4.50;;;;;;;-1.29;91.00;94827.41;5111135;28;20209;-75
2023/01/30 07:40:17;;;;;;;7.85;4.65;;;;;;;-1.37;90.99;94819.91;5111000;28;20250;-75
2023/01/30 07:42:44;;;;;;;9.75;5.32;;;;;;;-1.36;90.71;94832.09;5111235;28;20823;-74
2023/01/30 07:45:11;;;;;;;10.25;4.13;;;;;;;-1.29;90.84;94827.41;5110788;28;20617;-76
2023/01/30 07:47:38;;;;;;;9.68;3.70;;;;;;;-1.28;90.03;94831.69;5111238;28;20259;-76
2023/01/30 07:50:06;;;;;;;4.82;1.88;;;;;;;-1.27;90.56;94828.78;5111039;28;20226;-74
2023/01/30 07:52:33;;;;;;;8.68;4.63;;;;;;;-1.15;89.77;94820.66;5110934;28;20277;-75
2023/01/30 07:55:01;;;;;;;6.53;3.30;;;;;;;-1.03;89.59;94813.34;5110211;28;20606;-75
2023/01/30 07:57:28;;;;;;;7.85;4.13;;;;;;;-0.97;89.23;94815.00;5110962;28;20221;-75
2023/01/30 07:59:54;;;;;;;7.53;4.75;;;;;;;-0.85;89.18;94806.88;5110440;28;20609;-75
2023/01/30 08:02:21;;;;;;;10.60;4.60;;;;;;;-0.88;87.87;94800.19;5105471;28;20206;-75
2023/01/30 08:04:48;;;;;;;5.63;3.80;;;;;;;-0.99;88.15;94787.88;5110936;28;20198;-78
2023/01/30 08:07:14;;;;;;;3.65;2.25;;;;;;;-0.68;87.53;94791.59;5110730;28;20266;-75
2023/01/30 08:09:41;;;;;;;14.25;4.70;;;;;;;-0.69;87.23;94781.22;5109816;28;20237;-75
2023/01/30 08:12:10;;;;;;;5.35;2.47;;;;;;;-0.73;86.58;94787.03;5110132;28;20780;-74
2023/01/30 08:14:36;;;;;;;5.05;2.25;;;;;;;-0.73;86.93;94783.59;5110210;28;20206;-74
2023/01/30 08:17:03;;;;;;;9.45;4.00;;;;;;;-0.63;85.94;94793.50;5110076;28;20198;-75
2023/01/30 08:19:30;;;;;;;7.05;3.00;;;;;;;-0.57;86.03;94789.84;5110357;28;20197;-75
2023/01/30 08:21:59;;;;;;;5.00;2.55;;;;;;;-0.53;86.07;94777.59;5110671;28;20258;-76
2023/01/30 08:24:25;;;;;;;9.05;3.80;;;;;;;-0.43;85.69;94780.38;5109813;28;20206;-76
2023/01/30 08:26:52;;;;;;;12.43;5.80;;;;;;;-0.38;85.87;94783.03;5110704;28;20247;-75
2023/01/30 08:29:20;;;;;;;8.27;3.67;;;;;;;-0.41;84.96;94779.03;5110693;28;20230;-76
2023/01/30 08:31:47;;;;;;;3.72;2.15;;;;;;;-0.36;84.29;94775.63;5110315;28;20267;-75
2023/01/30 08:34:14;;;;;;;7.38;3.65;;;;;;;-0.19;84.59;94772.81;5109881;28;20197;-76
2023/01/30 08:36:40;;;;;;;12.15;4.63;;;;;;;-0.04;84.22;94767.56;5108422;28;20305;-78
2023/01/30 08:39:07;;;;;;;8.63;4.55;;;;;;;-0.06;83.50;94773.16;5110518;28;20205;-75
2023/01/30 08:41:34;;;;;;;5.03;2.60;;;;;;;-0.18;82.95;94777.06;5109708;28;20285;-76
2023/01/30 08:44:01;;;;;;;10.48;4.30;;;;;;;-0.24;81.67;94773.56;5109776;28;20213;-74
2023/01/30 08:46:29;;;;;;;5.82;2.65;;;;;;;-0.29;82.03;94770.09;5109479;28;20216;-76
2023/01/30 08:48:56;;;;;;;9.00;3.70;;;;;;;-0.08;82.36;94761.16;5109209;28;20226;-76
2023/01/30 08:51:22;;;;;;;8.32;4.25;;;;;;;-0.11;81.52;94757.13;5109981;28;20206;-79
2023/01/30 08:53:49;;;;;;;10.73;3.78;;;;;;;-0.01;81.47;94753.75;5108614;28;20216;-76
2023/01/30 08:56:16;;;;;;;2.75;1.77;;;;;;;0.02;81.65;94758.53;5109443;28;20201;-77
2023/01/30 08:58:45;;;;;;;3.92;3.15;;;;;;;-0.08;80.46;94755.84;5110517;28;20198;-78
2023/01/30 09:01:12;;;;;;;4.97;2.70;;;;;;;-0.23;80.43;94759.19;5109347;28;20209;-78
2023/01/30 09:03:40;;;;;;;7.45;4.05;;;;;;;-0.25;80.32;94749.88;5109320;28;20266;-78
2023/01/30 09:06:07;;;;;;;7.78;3.08;;;;;;;-0.37;81.08;94742.88;5109542;28;20194;-75
2023/01/30 09:08:34;;;;;;;10.52;3.53;;;;;;;-0.31;80.62;94741.06;5109407;28;20202;-76
2023/01/30 09:11:02;;;;;;;6.10;2.97;;;;;;;-0.10;80.02;94737.44;5108976;28;20717;-76
2023/01/30 09:13:29;;;;;;;5.10;3.03;;;;;;;-0.09;80.18;94736.41;5109296;28;20197;-75
2023/01/30 09:15:56;;;;;;;7.30;3.70;;;;;;;-0.16;79.33;94738.50;5109425;28;20201;-75
2023/01/30 09:18:25;;;;;;;6.85;3.22;;;;;;;-0.27;79.74;94728.81;5109949;28;20209;-77
2023/01/30 09:20:53;;;;;;;4.55;2.60;;;;;;;0.00;79.18;94734.84;5108855;28;20205;-75
2023/01/30 09:23:19;;;;;;;4.35;2.58;;;;;;;-0.10;78.55;94721.47;5109150;28;20610;-77
2023/01/30 09:25:46;;;;;;;6.20;3.30;;;;;;;0.00;79.80;94729.50;5108333;28;20213;-76
2023/01/30 09:28:14;;;;;;;3.30;2.13;;;;;;;0.18;79.18;94722.94;5108333;28;20637;-79
2023/01/30 09:30:41;;;;;;;5.82;2.83;;;;;;;-0.11;79.02;94730.53;5108624;28;20229;-78
2023/01/30 09:33:08;;;;;;;4.47;2.53;;;;;;;-0.15;79.96;94724.13;5108205;28;20825;-77
2023/01/30 09:35:34;;;;;;;6.80;3.53;;;;;;;-0.51;82.79;94736.41;5108405;28;20225;-73
2023/01/30 09:38:04;;;;;;;10.88;5.13;;;;;;;-0.72;83.95;94738.13;5109038;28;20201;-75
2023/01/30 09:40:32;;;;;;;20.92;4.47;;;;;;;-0.86;85.33;94728.16;5108792;28;20204;-77
2023/01/30 09:43:24;;;;;;;17.23;6.05;;;;;;;-0.89;85.11;94729.47;5108681;28;20263;-75
2023/01/30 09:46:03;;;;;;;18.88;7.82;;;;;;;-0.75;85.94;94714.69;5095464;28;20198;-76
2023/01/30 09:48:36;;;;;;;6.93;4.70;;;;;;;-0.51;86.02;94723.09;5108549;28;20628;-77
2023/01/30 09:51:18;;;;;;;5.25;4.28;;;;;;;-0.34;84.75;94714.97;5108974;28;20285;-77
2023/01/30 09:54:04;;;;;;;8.15;3.90;;;;;;;-0.49;85.73;94709.53;5108757;28;20201;-77
2023/01/30 09:56:31;;;;;;;9.82;4.40;;;;;;;-0.55;85.67;94702.59;5107986;28;20201;-78
2023/01/30 09:58:59;;;;;;;4.53;2.30;;;;;;;-0.48;85.38;94708.50;5107521;28;20197;-78
2023/01/30 10:01:36;;;;;;;7.55;4.25;;;;;;;-0.62;85.58;94702.00;5107945;28;20198;-76
2023/01/30 10:04:12;;;;;;;7.32;3.85;;;;;;;-0.57;85.92;94699.41;5107919;28;20198;-77
2023/01/30 10:06:50;;;;;;;9.77;5.00;;;;;;;-0.58;86.04;94692.47;5106934;28;20220;-77
2023/01/30 10:09:30;;;;;;;10.43;4.50;;;;;;;-0.59;86.17;94691.66;5108555;28;20209;-77
2023/01/30 10:12:11;;;;;;;7.90;4.10;;;;;;;-0.77;86.79;94686.75;5108546;28;20225;-76
2023/01/30 10:15:03;;;;;;;7.00;4.13;;;;;;;-0.72;86.72;94676.16;5108348;28;20190;-78
2023/01/30 10:17:39;;;;;;;18.80;6.93;;;;;;;-0.74;86.42;94671.09;5091077;28;20209;-76
2023/01/30 10:20:30;;;;;;;13.75;5.68;;;;;;;-0.92;87.34;94666.16;5108785;28;20211;-77
2023/01/30 10:23:04;;;;;;;14.48;6.57;;;;;;;-1.00;87.70;94658.69;5108493;28;20609;-76
2023/01/30 10:25:38;;;;;;;13.38;6.82;;;;;;;-0.98;87.63;94651.25;5108105;28;20605;-79
2023/01/30 10:28:12;;;;;;;22.65;7.60;;;;;;;-0.93;87.04;94658.44;5108314;28;20251;-76
2023/01/30 10:30:39;;;;;;;12.02;5.88;;;;;;;-1.04;86.50;94644.28;5108068;28;20217;-77
2023/01/30 10:33:12;;;;;;;15.85;5.07;;;;;;;-1.09;86.49;94633.59;5109596;28;20197;-77
2023/01/30 10:35:42;;;;;;;5.90;3.28;;;;;;;-0.85;85.73;94648.16;5112891;28;20588;-76
2023/01/30 10:38:18;;;;;;;16.70;6.63;;;;;;;-0.60;85.17;94638.72;5112941;28;20259;-78
2023/01/30 10:40:52;;;;;;;8.20;4.30;;;;;;;-0.58;84.48;94618.00;5112874;28;20583;-77
2023/01/30 10:43:26;;;;;;;7.85;2.40;;;;;;;-0.33;83.38;94611.97;5111355;28;20198;-77
2023/01/30 10:46:04;;;;;;;4.57;2.63;;;;;;;-0.15;82.78;94622.97;5112146;28;20229;-77
2023/01/30 10:48:49;;;;;;;8.73;4.40;;;;;;;-0.56;82.57;94615.88;5112997;28;20201;-76
2023/01/30 10:51:36;;;;;;;11.45;4.82;;;;;;;-0.63;82.88;94602.78;5103931;28;20264;-76
2023/01/30 10:54:12;;;;;;;13.50;3.38;;;;;;;-0.56;82.86;94589.28;5090084;28;20264;-74
2023/01/30 10:56:48;;;;;;;23.00;7.57;;;;;;;-0.61;81.51;94576.75;5111624;28;20261;-74
2023/01/30 10:59:24;;;;;;;13.00;6.20;;;;;;;-0.55;82.55;94586.38;5104269;28;20259;-73
2023/01/30 11:02:10;;;;;;;16.52;6.93;;;;;;;-0.07;81.65;94582.53;5101637;28;20259;-74
2023/01/30 11:04:43;;;;;;;16.30;7.60;;;;;;;-0.16;81.37;94572.66;5095442;28;20193;-74
2023/01/30 11:07:12;;;;;;;10.35;4.03;;;;;;;0.09;80.45;94566.59;5111741;28;20217;-77
2023/01/30 11:09:42;;;;;;;11.93;5.30;;;;;;;0.14;79.51;94567.38;5111453;28;20676;-76
2023/01/30 11:12:10;;;;;;;15.82;6.75;;;;;;;-0.03;79.84;94550.88;5110996;28;20213;-73
2023/01/30 11:14:58;;;;;;;11.68;5.45;;;;;;;-0.08;80.59;94548.19;5111728;28;20193;-75
2023/01/30 11:17:32;;;;;;;11.05;5.35;;;;;;;-0.16;80.36;94549.50;5111031;28;20201;-76
2023/01/30 11:20:08;;;;;;;9.70;4.78;;;;;;;-0.22;80.50;94541.75;5098326;28;20894;-74
2023/01/30 11:22:36;;;;;;;14.85;6.78;;;;;;;-0.31;81.17;94543.34;5111188;28;20221;-74
2023/01/30 11:25:11;;;;;;;7.60;4.85;;;;;;;-0.40;81.85;94537.72;5111557;28;20209;-75
2023/01/30 11:27:43;;;;;;;12.35;6.32;;;;;;;-0.10;80.71;94519.16;5111480;28;20189;-73
2023/01/30 11:30:15;;;;;;;10.32;4.93;;;;;;;-0.22;80.74;94523.13;5111566;28;20260;-76
2023/01/30 11:32:43;;;;;;;5.63;4.88;;;;;;;-0.06;81.51;94514.91;5110786;28;20215;-76
2023/01/30 11:35:28;;;;;;;16.38;6.50;;;;;;;-0.20;79.92;94519.16;5111280;28;20305;-75
2023/01/30 11:38:10;;;;;;;18.58;7.50;;;;;;;-0.25;80.44;94516.47;5099144;28;20205;-72
2023/01/30 11:40:39;;;;;;;12.40;6.15;;;;;;;-0.31;80.66;94506.09;5111066;28;20197;-73
2023/01/30 11:43:12;;;;;;;14.77;6.43;;;;;;;-0.22;81.00;94509.81;5101288;28;20289;-73
2023/01/30 11:45:41;;;;;;;8.25;5.00;;;;;;;-0.39;81.19;94483.44;5109860;28;20267;-73
2023/01/30 11:48:16;;;;;;;14.95;6.43;;;;;;;-0.19;81.25;94491.47;5110973;28;20262;-76